createdAt,value
2023-05-15T00:00:02.237Z,11.4
2023-05-15T00:05:02.328Z,11.22
2023-05-15T00:10:03.007Z,11.22
2023-05-15T00:15:02.797Z,11.15
2023-05-15T00:20:02.612Z,10.9
2023-05-15T00:25:02.319Z,10.85
2023-05-15T00:30:03.135Z,10.44
2023-05-15T00:35:02.867Z,9.86
2023-05-15T00:40:02.186Z,9.46
2023-05-15T00:45:02.954Z,9.67
2023-05-15T00:50:02.946Z,10.05
2023-05-15T00:55:03.317Z,10.13
2023-05-15T01:00:02.450Z,10.11
2023-05-15T01:05:02.250Z,9.89
2023-05-15T01:10:03.136Z,9.76
2023-05-15T01:15:02.863Z,9.3
2023-05-15T01:20:02.788Z,9.09
2023-05-15T01:25:02.709Z,9.05
2023-05-15T01:30:02.860Z,8.89
2023-05-15T01:35:02.707Z,8.7
2023-05-15T01:40:02.815Z,8.71
2023-05-15T01:45:02.623Z,8.68
2023-05-15T01:50:02.316Z,8.93
2023-05-15T01:55:04.014Z,8.98
2023-05-15T02:00:02.942Z,9.35
2023-05-15T02:05:03.056Z,9.47
2023-05-15T02:10:02.651Z,9.61
2023-05-15T02:15:02.689Z,9.82
2023-05-15T02:20:02.522Z,10.03
2023-05-15T02:25:02.241Z,9.94
2023-05-15T02:30:03.054Z,9.93
2023-05-15T02:35:02.962Z,9.93
2023-05-15T02:40:02.770Z,9.91
2023-05-15T02:45:03.118Z,9.74
2023-05-15T02:50:02.807Z,9.21
2023-05-15T02:55:02.988Z,8.93
2023-05-15T03:00:02.267Z,8.63
2023-05-15T03:05:03.020Z,7.97
2023-05-15T03:10:02.643Z,7.43
2023-05-15T03:15:02.622Z,7.43
2023-05-15T03:20:02.369Z,7.67
2023-05-15T03:25:03.089Z,8.11
2023-05-15T03:30:02.952Z,8.5
2023-05-15T03:35:02.935Z,8.94
2023-05-15T03:40:02.367Z,8.48
2023-05-15T03:45:03.191Z,8.41
2023-05-15T03:50:02.861Z,8.78
2023-05-15T03:55:03.112Z,8.91
2023-05-15T04:00:02.286Z,9.22
2023-05-15T04:05:03.036Z,9.36
2023-05-15T04:10:02.753Z,9.62
2023-05-15T04:15:02.539Z,10.68
2023-05-15T04:20:02.398Z,10.26
2023-05-15T04:25:03.177Z,10.49
2023-05-15T04:30:02.878Z,12.07
2023-05-15T04:35:02.568Z,13.33
2023-05-15T04:40:02.442Z,13.85
2023-05-15T04:45:03.204Z,13.52
2023-05-15T04:50:02.918Z,14.42
2023-05-15T04:55:03.625Z,15.83
2023-05-15T05:00:02.603Z,14.61
2023-05-15T05:05:02.631Z,14.03
2023-05-15T05:10:02.445Z,13.32
2023-05-15T05:15:02.402Z,12.33
2023-05-15T05:20:02.415Z,12.4
2023-05-15T05:25:02.548Z,12.88
2023-05-15T05:30:02.429Z,13.16
2023-05-15T05:35:03.099Z,14.52
2023-05-15T05:40:02.867Z,14.95
2023-05-15T05:45:02.867Z,17.51
2023-05-15T05:50:02.474Z,17.22
2023-05-15T05:55:03.277Z,15.56
2023-05-15T06:00:02.602Z,15.08
2023-05-15T06:05:03.257Z,16.19
2023-05-15T06:10:02.836Z,15.45
2023-05-15T06:15:03.066Z,16.32
2023-05-15T06:20:02.383Z,16.32
2023-05-15T06:25:02.922Z,16.43
2023-05-15T06:30:02.755Z,16.31
2023-05-15T06:35:02.634Z,16.51
2023-05-15T06:40:02.396Z,16.91
2023-05-15T06:50:03.112Z,17.73
2023-05-15T06:55:03.754Z,17.56
2023-05-15T07:00:02.713Z,17.93
2023-05-15T07:05:02.381Z,19.54
2023-05-15T07:10:03.032Z,19.42
2023-05-15T07:15:02.997Z,21.41
2023-05-15T07:20:02.564Z,20.9
2023-05-15T07:25:02.254Z,21.1
2023-05-15T07:30:03.056Z,20.13
2023-05-15T07:35:02.793Z,20.12
2023-05-15T07:40:02.660Z,20.05
2023-05-15T07:45:02.391Z,20.17
2023-05-15T07:50:03.092Z,20.24
2023-05-15T07:55:04.025Z,20.2
2023-05-15T08:00:02.601Z,20.09
2023-05-15T08:05:02.448Z,19.65
2023-05-15T08:10:03.029Z,20.9
2023-05-15T08:15:02.830Z,21.29
2023-05-15T08:20:02.731Z,20.34
2023-05-15T08:25:02.481Z,20.32
2023-05-15T08:30:02.366Z,20.4
2023-05-15T08:35:03.015Z,20.86
2023-05-15T08:40:02.761Z,21.24
2023-05-15T08:45:02.656Z,20.43
2023-05-15T08:50:02.323Z,21.33
2023-05-15T08:55:03.972Z,22.45
2023-05-15T09:00:03.022Z,20.66
2023-05-15T09:05:02.792Z,22.48
2023-05-15T09:10:02.595Z,22.85
2023-05-15T09:15:02.304Z,22.03
2023-05-15T09:20:03.068Z,21.51
2023-05-15T09:25:02.807Z,21.65
2023-05-15T09:30:02.521Z,21.18
2023-05-15T09:35:02.458Z,22.21
2023-05-15T09:40:02.204Z,22.13
2023-05-15T09:45:02.968Z,22.72
2023-05-15T09:50:02.729Z,24.09
2023-05-15T09:55:02.942Z,23.95
2023-05-15T10:00:03.103Z,24.72
2023-05-15T10:05:02.971Z,24.97
2023-05-15T10:10:02.728Z,25.08
2023-05-15T10:15:02.631Z,25.76
2023-05-15T10:20:02.524Z,23.25
2023-05-15T10:25:02.257Z,21.9
2023-05-15T10:30:02.971Z,21.38
2023-05-15T10:35:02.563Z,20.71
2023-05-15T10:40:02.377Z,22.1
2023-05-15T10:45:02.368Z,23.3
2023-05-15T10:50:03.186Z,21.78
2023-05-15T10:55:03.824Z,20.32
2023-05-15T11:00:02.772Z,19.83
2023-05-15T11:05:02.839Z,19.59
2023-05-15T11:10:04.249Z,18.98
2023-05-15T11:15:02.939Z,19.3
2023-05-15T11:20:02.634Z,19.28
2023-05-15T11:25:02.688Z,19.79
2023-05-15T11:30:03.210Z,20
2023-05-15T11:35:02.284Z,19.67
2023-05-15T11:40:03.088Z,20.21
2023-05-15T11:45:02.832Z,20.82
2023-05-15T11:50:02.972Z,20.51
2023-05-15T11:55:03.857Z,20.66
2023-05-15T12:00:02.716Z,20.71
2023-05-15T12:05:02.295Z,20.42
2023-05-15T12:10:02.973Z,20.58
2023-05-15T12:15:02.942Z,21.25
2023-05-15T12:20:02.663Z,20.49
2023-05-15T12:25:02.543Z,21.7
2023-05-15T12:30:02.281Z,22.08
2023-05-15T12:35:02.361Z,23.45
2023-05-15T12:40:03.097Z,21.65
2023-05-15T12:45:02.963Z,21.5
2023-05-15T12:50:02.736Z,20.25
2023-05-15T12:55:03.188Z,20.47
2023-05-15T13:00:02.287Z,21.82
2023-05-15T13:05:03.223Z,20.68
2023-05-15T13:10:02.712Z,20.11
2023-05-15T13:15:02.876Z,21.21
2023-05-15T13:20:02.586Z,21.35
2023-05-15T13:25:03.126Z,21.6
2023-05-15T13:30:02.855Z,21.69
2023-05-15T13:35:02.751Z,21.44
2023-05-15T13:40:02.418Z,21.54
2023-05-15T13:45:03.125Z,21.7
2023-05-15T13:50:02.828Z,22.04
2023-05-15T13:55:04.031Z,21.58
2023-05-15T14:00:02.582Z,21.43
2023-05-15T14:05:02.929Z,20.81
2023-05-15T14:10:02.592Z,19.8
2023-05-15T14:15:02.439Z,19.33
2023-05-15T14:20:02.499Z,18.85
2023-05-15T14:25:03.606Z,14.49
2023-05-15T14:30:02.778Z,13.67
2023-05-15T14:35:02.397Z,13.53
2023-05-15T14:40:02.232Z,13.41
2023-05-15T14:45:03.003Z,13.65
2023-05-15T14:50:02.659Z,13.97
2023-05-15T15:00:02.566Z,14.44
2023-05-15T15:10:02.551Z,14.9
2023-05-15T15:15:03.186Z,15.08
2023-05-15T15:20:02.947Z,15.19
2023-05-15T15:25:02.564Z,15.53
2023-05-15T15:30:02.373Z,15.78
2023-05-15T15:35:03.230Z,16.04
2023-05-15T15:40:02.294Z,16.09
2023-05-15T15:45:03.039Z,16.22
2023-05-15T15:50:02.877Z,16.03
2023-05-15T15:55:03.315Z,15.83
2023-05-15T16:00:02.850Z,15.78
2023-05-15T16:05:02.477Z,15.74
2023-05-15T16:10:11.282Z,15.88
2023-05-15T16:15:13.779Z,16.21
2023-05-15T16:20:02.844Z,16.34
2023-05-15T16:25:02.548Z,16.59
2023-05-15T16:30:02.531Z,18.17
2023-05-15T16:35:02.353Z,19.66
2023-05-15T16:40:03.115Z,18.67
2023-05-15T16:45:02.994Z,17.7
2023-05-15T16:50:02.906Z,17.01
2023-05-15T16:55:03.892Z,16.7
2023-05-15T17:00:02.622Z,18.15
2023-05-15T17:05:02.399Z,18.23
2023-05-15T17:10:03.102Z,17.44
2023-05-15T17:15:03.071Z,16.79
2023-05-15T17:20:03.392Z,16.17
2023-05-15T17:25:02.774Z,15.91
2023-05-15T17:30:02.591Z,15.71
2023-05-15T17:35:02.492Z,15.57
2023-05-15T17:40:02.348Z,15.58
2023-05-15T17:45:03.077Z,15.69
2023-05-15T17:50:02.892Z,15.56
2023-05-15T17:55:03.766Z,15.45
2023-05-15T18:00:02.598Z,15.43
2023-05-15T18:05:02.331Z,15.41
2023-05-15T18:10:03.115Z,15.25
2023-05-15T18:15:02.832Z,14.94
2023-05-15T18:20:02.568Z,14.83
2023-05-15T18:25:08.451Z,14.72
2023-05-15T18:30:02.457Z,14.61
2023-05-15T18:35:02.363Z,14.6
2023-05-15T18:40:03.138Z,14.48
2023-05-15T18:45:03.010Z,14.54
2023-05-15T18:50:02.671Z,14.05
2023-05-15T18:55:03.320Z,12.75
2023-05-15T19:00:02.313Z,12.66
2023-05-15T19:05:02.509Z,12.55
2023-05-15T19:10:02.457Z,12.44
2023-05-15T19:15:03.228Z,12.37
2023-05-15T19:20:03.041Z,12.45
2023-05-15T19:25:02.730Z,12.45
2023-05-15T19:30:02.640Z,12.51
2023-05-15T19:35:02.480Z,12.88
2023-05-15T19:40:02.407Z,12.81
2023-05-15T19:45:03.136Z,12.59
2023-05-15T19:50:02.248Z,12.47
2023-05-15T19:55:04.290Z,12.32
2023-05-15T20:00:02.840Z,12.26
2023-05-15T20:05:02.532Z,12.16
2023-05-15T20:10:02.348Z,12.28
2023-05-15T20:15:02.616Z,12.25
2023-05-15T20:20:02.285Z,12.35
2023-05-15T20:25:02.980Z,12.36
2023-05-15T20:30:02.935Z,12.35
2023-05-15T20:35:02.578Z,13
2023-05-15T20:40:02.375Z,13.18
2023-05-15T20:45:03.301Z,12.95
2023-05-15T20:50:03.055Z,12.96
2023-05-15T20:55:03.803Z,13.24
2023-05-15T21:00:02.429Z,13.33
2023-05-15T21:05:02.428Z,13.53
2023-05-15T21:10:02.363Z,13.53
2023-05-15T21:15:02.696Z,13.19
2023-05-15T21:20:02.356Z,12.99
2023-05-15T21:25:03.104Z,12.83
2023-05-15T21:30:02.966Z,12.82
2023-05-15T21:35:02.649Z,12.82
2023-05-15T21:40:02.847Z,12.68
2023-05-15T21:45:03.716Z,12.67
2023-05-15T21:50:02.638Z,12.67
2023-05-15T21:55:03.312Z,12.81
2023-05-15T22:00:03.044Z,12.68
2023-05-15T22:05:03.098Z,12.82
2023-05-15T22:10:03.003Z,12.63
2023-05-15T22:15:03.036Z,12.66
2023-05-15T22:20:02.776Z,12.8
2023-05-15T22:25:02.743Z,12.63
2023-05-15T22:30:02.454Z,12.63
2023-05-15T22:35:03.172Z,12.62
2023-05-15T22:40:02.792Z,12.61
2023-05-15T22:45:02.866Z,12.66
2023-05-15T22:50:02.549Z,12.42
2023-05-15T22:55:03.731Z,12.27
2023-05-15T23:00:02.300Z,11.85
2023-05-15T23:05:02.943Z,11.63
2023-05-15T23:10:02.592Z,11.6
2023-05-15T23:15:02.366Z,11.38
2023-05-15T23:20:03.135Z,11.38
2023-05-15T23:25:02.804Z,11.12
2023-05-15T23:30:02.563Z,10.93
2023-05-15T23:35:02.622Z,10.87
2023-05-15T23:40:02.195Z,10.68
2023-05-15T23:45:03.096Z,10.48
2023-05-15T23:50:03.188Z,10.34
2023-05-15T23:55:03.851Z,10.28
